Archival Weather

Chicago O'Hare International

Chicago, Illinois (KORD)

Report from: Thursday, April 13, 2023 8:51 PM CDT
Current time: Sunday, February 25, 2024 4:04 PM CST

Current weather – Weather history – Daily summaries
Weather forecast

Temperature22.8°C (73.0°F)
Dew point2.8°C (37.0°F)
Winds 6 kts (3.1 m/s, 6.9 mph) South (170°)
Visibility10 mi. (16.1 km)
Clouds Ceiling: Broken clouds 25,000 ft. (7,620 m)
Altimeter29.78 in.Hg (1008 mB)
Relative humidity27 %
Density altitude1,195 ft. (364 m)
Sea-level pressure100.8 kPa (1008 mB, 29.77 in.Hg)
Remarks Automated weather observing station with precipitation discriminator
Flight conditions Visual Meteorological Conditions
Raw dataKORD 140151Z 17006KT 10SM BKN250 23/03 A2978 RMK AO2 SLP081 T02280028
An error has occurred. This application may no longer respond until reloaded. Reload 🗙